createdAt,value
2019-03-03T00:00:36.719Z,6.60
2019-03-03T00:03:04.260Z,6.61
2019-03-03T00:05:31.607Z,6.62
2019-03-03T00:07:58.897Z,6.60
2019-03-03T00:10:26.225Z,6.64
2019-03-03T00:12:53.600Z,6.56
2019-03-03T00:15:20.959Z,6.62
2019-03-03T00:17:47.967Z,6.56
2019-03-03T00:20:15.002Z,6.57
2019-03-03T00:22:42.048Z,6.60
2019-03-03T00:25:09.333Z,6.62
2019-03-03T00:27:36.649Z,6.61
2019-03-03T00:30:07.842Z,6.60
2019-03-03T00:32:35.304Z,6.60
2019-03-03T00:35:03.301Z,6.58
2019-03-03T00:37:30.692Z,6.61
2019-03-03T00:39:58.388Z,6.63
2019-03-03T00:42:25.436Z,6.61
2019-03-03T00:44:52.474Z,6.59
2019-03-03T00:47:19.810Z,6.56
2019-03-03T00:49:47.163Z,6.60
2019-03-03T00:52:14.366Z,6.60
2019-03-03T00:54:41.397Z,6.59
2019-03-03T00:57:08.436Z,6.58
2019-03-03T00:59:35.765Z,6.61
2019-03-03T01:02:03.117Z,6.60
2019-03-03T01:04:30.169Z,6.58
2019-03-03T01:06:58.419Z,6.60
2019-03-03T01:09:25.713Z,6.60
2019-03-03T01:11:52.748Z,6.62
2019-03-03T01:14:19.799Z,6.61
2019-03-03T01:16:47.092Z,6.58
2019-03-03T01:19:14.399Z,6.61
2019-03-03T01:21:41.435Z,6.60
2019-03-03T01:24:08.482Z,6.63
2019-03-03T01:26:35.766Z,6.66
2019-03-03T01:29:02.813Z,6.63
2019-03-03T01:31:30.096Z,6.62
2019-03-03T01:33:57.394Z,6.57
2019-03-03T01:36:24.428Z,6.60
2019-03-03T01:38:51.721Z,6.62
2019-03-03T01:41:19.000Z,6.57
2019-03-03T01:43:46.055Z,6.58
2019-03-03T01:46:13.082Z,6.61
2019-03-03T01:48:40.130Z,6.61
2019-03-03T01:51:07.407Z,6.63
2019-03-03T01:53:34.813Z,6.62
2019-03-03T01:56:02.093Z,6.59
2019-03-03T01:58:29.479Z,6.59
2019-03-03T02:00:56.508Z,6.64
2019-03-03T02:03:23.925Z,6.67
2019-03-03T02:05:51.026Z,6.62
2019-03-03T02:08:18.055Z,6.60
2019-03-03T02:10:45.348Z,6.62
2019-03-03T02:13:12.636Z,6.68
2019-03-03T02:15:39.720Z,6.71
2019-03-03T02:18:06.992Z,6.67
2019-03-03T02:20:34.288Z,6.66
2019-03-03T02:23:01.564Z,6.72
2019-03-03T02:25:28.857Z,6.74
2019-03-03T02:27:55.889Z,6.72
2019-03-03T02:30:23.198Z,6.76
2019-03-03T02:32:50.483Z,6.72
2019-03-03T02:35:17.800Z,6.72
2019-03-03T02:37:45.077Z,6.73
2019-03-03T02:40:12.413Z,6.74
2019-03-03T02:42:39.767Z,6.71
2019-03-03T02:45:06.816Z,6.72
2019-03-03T02:47:35.162Z,6.69
2019-03-03T02:50:02.210Z,6.68
2019-03-03T02:52:29.494Z,6.70
2019-03-03T02:54:56.555Z,6.71
2019-03-03T02:57:23.894Z,6.70
2019-03-03T02:59:50.949Z,6.73
2019-03-03T03:02:18.256Z,6.80
2019-03-03T03:04:45.304Z,6.82
2019-03-03T03:07:12.329Z,6.83
2019-03-03T03:09:39.646Z,6.80
2019-03-03T03:12:06.697Z,6.78
2019-03-03T03:14:42.439Z,6.77
2019-03-03T03:17:09.730Z,6.76
2019-03-03T03:19:37.840Z,6.73
2019-03-03T03:22:05.123Z,6.74
2019-03-03T03:24:32.429Z,6.77
2019-03-03T03:26:59.464Z,6.81
2019-03-03T03:29:26.520Z,6.79
2019-03-03T03:31:53.542Z,6.79
2019-03-03T03:34:20.591Z,6.80
2019-03-03T03:36:47.639Z,6.84
2019-03-03T03:39:14.926Z,6.83
2019-03-03T03:41:42.207Z,6.81
2019-03-03T03:44:09.301Z,6.79
2019-03-03T03:46:36.345Z,6.81
2019-03-03T03:49:03.629Z,6.85
2019-03-03T03:51:30.936Z,6.82
2019-03-03T03:53:58.698Z,6.81
2019-03-03T03:56:25.997Z,6.79
2019-03-03T03:58:53.030Z,6.77
2019-03-03T04:01:20.077Z,6.76
2019-03-03T04:03:47.713Z,6.77
2019-03-03T04:06:14.761Z,6.76
2019-03-03T04:08:42.126Z,6.68
2019-03-03T04:11:09.470Z,6.69
2019-03-03T04:13:36.502Z,6.70
2019-03-03T04:16:03.885Z,6.69
2019-03-03T04:18:31.225Z,6.67
2019-03-03T04:20:58.592Z,6.56
2019-03-03T04:23:25.933Z,6.54
2019-03-03T04:25:53.235Z,6.49
2019-03-03T04:28:20.265Z,6.47
2019-03-03T04:30:47.313Z,6.43
2019-03-03T04:33:14.346Z,6.44
2019-03-03T04:35:41.681Z,6.42
2019-03-03T04:38:08.712Z,6.40
2019-03-03T04:40:36.003Z,6.35
2019-03-03T04:43:03.037Z,6.29
2019-03-03T04:45:30.080Z,6.31
2019-03-03T04:47:57.122Z,6.30
2019-03-03T04:50:24.483Z,6.29
2019-03-03T04:52:51.786Z,6.22
2019-03-03T04:55:18.818Z,6.23
2019-03-03T04:57:45.869Z,6.25
2019-03-03T05:00:12.911Z,6.27
2019-03-03T05:02:39.964Z,6.27
2019-03-03T05:05:06.998Z,6.25
2019-03-03T05:07:34.317Z,6.26
2019-03-03T05:10:02.624Z,6.32
2019-03-03T05:12:30.373Z,6.40
2019-03-03T05:14:57.420Z,6.42
2019-03-03T05:17:24.469Z,6.33
2019-03-03T05:19:51.749Z,6.30
2019-03-03T05:22:18.796Z,6.29
2019-03-03T05:24:46.126Z,6.27
2019-03-03T05:27:13.429Z,6.26
2019-03-03T05:29:40.730Z,6.23
2019-03-03T05:32:07.783Z,6.25
2019-03-03T05:34:34.817Z,6.24
2019-03-03T05:37:01.880Z,6.31
2019-03-03T05:39:28.900Z,6.38
2019-03-03T05:41:55.955Z,6.44
2019-03-03T05:44:23.324Z,6.48
2019-03-03T05:46:50.677Z,6.49
2019-03-03T05:49:17.969Z,6.55
2019-03-03T05:51:45.285Z,6.57
2019-03-03T05:54:12.324Z,6.59
2019-03-03T05:56:44.913Z,6.62
2019-03-03T05:59:11.946Z,6.65
2019-03-03T06:01:38.993Z,6.67
2019-03-03T06:04:06.364Z,6.68
2019-03-03T06:06:33.396Z,6.69
2019-03-03T06:09:00.445Z,6.71
2019-03-03T06:11:29.148Z,6.78
2019-03-03T06:13:56.504Z,6.84
2019-03-03T06:16:23.737Z,6.88
2019-03-03T06:18:50.777Z,6.87
2019-03-03T06:21:17.821Z,6.90
2019-03-03T06:23:45.233Z,6.94
2019-03-03T06:26:12.277Z,7.00
2019-03-03T06:28:39.323Z,7.02
2019-03-03T06:31:06.361Z,7.04
2019-03-03T06:33:33.412Z,7.09
2019-03-03T06:36:00.750Z,7.11
2019-03-03T06:38:27.806Z,7.13
2019-03-03T06:40:54.847Z,7.17
2019-03-03T06:43:21.898Z,7.17
2019-03-03T06:45:48.941Z,7.21
2019-03-03T06:48:16.303Z,7.29
2019-03-03T06:50:43.343Z,7.34
2019-03-03T06:53:10.720Z,7.38
2019-03-03T06:55:38.113Z,7.38
2019-03-03T06:58:05.125Z,7.35
2019-03-03T07:00:32.160Z,7.38
2019-03-03T07:02:59.509Z,7.45
2019-03-03T07:05:26.541Z,7.56
2019-03-03T07:07:53.584Z,7.66
2019-03-03T07:10:21.370Z,7.77
2019-03-03T07:12:48.733Z,7.86
2019-03-03T07:15:16.045Z,7.99
2019-03-03T07:17:43.085Z,8.16
2019-03-03T07:20:10.484Z,8.62
2019-03-03T07:22:37.531Z,9.06
2019-03-03T07:25:04.888Z,9.72
2019-03-03T07:27:31.933Z,10.31
2019-03-03T07:29:58.986Z,10.76
2019-03-03T07:32:26.277Z,10.82
2019-03-03T07:34:53.720Z,10.03
2019-03-03T07:37:20.754Z,9.86
2019-03-03T07:39:47.806Z,9.15
2019-03-03T07:42:15.093Z,8.70
2019-03-03T07:44:43.360Z,8.75
2019-03-03T07:47:10.656Z,8.93
2019-03-03T07:49:39.120Z,9.02
2019-03-03T07:52:06.339Z,8.87
2019-03-03T07:54:36.288Z,8.91
2019-03-03T07:57:04.674Z,8.92
2019-03-03T07:59:32.072Z,8.81
2019-03-03T08:02:00.339Z,8.90
2019-03-03T08:04:27.539Z,9.15
2019-03-03T08:06:54.768Z,9.43
2019-03-03T08:09:22.974Z,9.37
2019-03-03T08:11:51.218Z,9.06
2019-03-03T08:14:19.425Z,8.88
2019-03-03T08:16:47.780Z,8.86
2019-03-03T08:19:15.083Z,8.77
2019-03-03T08:21:43.303Z,8.84
2019-03-03T08:24:10.568Z,8.99
2019-03-03T08:26:39.005Z,9.28
2019-03-03T08:29:06.204Z,9.35
2019-03-03T08:31:33.243Z,9.36
2019-03-03T08:34:01.421Z,9.46
2019-03-03T08:36:28.654Z,9.70
2019-03-03T08:38:55.826Z,9.90
2019-03-03T08:41:24.596Z,9.89
2019-03-03T08:43:53.028Z,9.84
2019-03-03T08:46:20.252Z,9.52
2019-03-03T08:48:48.418Z,9.39
2019-03-03T08:51:17.275Z,9.33
2019-03-03T08:53:46.531Z,9.44
2019-03-03T08:56:15.267Z,9.41
2019-03-03T08:58:42.437Z,9.57
2019-03-03T09:01:10.622Z,9.48
2019-03-03T09:03:38.781Z,9.43
2019-03-03T09:06:06.299Z,9.56
2019-03-03T09:08:34.516Z,9.49
2019-03-03T09:11:02.711Z,9.45
2019-03-03T09:13:34.089Z,9.58
2019-03-03T09:16:03.719Z,9.59
2019-03-03T09:18:31.487Z,9.85
2019-03-03T09:20:58.687Z,9.90
2019-03-03T09:23:26.939Z,9.79
2019-03-03T09:25:55.137Z,9.82
2019-03-03T09:28:23.183Z,10.09
2019-03-03T09:30:51.748Z,10.44
2019-03-03T09:33:19.512Z,10.60
2019-03-03T09:35:46.704Z,10.38
2019-03-03T09:38:14.631Z,10.07
2019-03-03T09:40:43.213Z,10.05
2019-03-03T09:43:18.171Z,9.91
2019-03-03T09:48:26.215Z,9.74
2019-03-03T09:50:55.789Z,9.71
2019-03-03T09:53:22.953Z,9.83
2019-03-03T09:55:50.222Z,9.81
2019-03-03T09:58:18.483Z,9.69
2019-03-03T10:00:45.648Z,9.53
2019-03-03T10:03:12.881Z,9.52
2019-03-03T10:05:40.052Z,9.55
2019-03-03T10:08:07.979Z,9.45
2019-03-03T10:10:35.430Z,9.31
2019-03-03T10:13:03.797Z,9.43
2019-03-03T10:15:32.168Z,9.38
2019-03-03T10:18:00.571Z,9.53
2019-03-03T10:20:28.836Z,9.60
2019-03-03T10:22:57.682Z,9.68
2019-03-03T10:25:25.833Z,9.78
2019-03-03T10:27:54.030Z,9.75
2019-03-03T10:30:22.184Z,9.83
2019-03-03T10:32:49.499Z,9.99
2019-03-03T10:35:16.690Z,9.96
2019-03-03T10:37:43.966Z,10.31
2019-03-03T10:40:12.118Z,10.03
2019-03-03T10:42:39.428Z,10.21
2019-03-03T10:45:07.314Z,10.72
2019-03-03T10:47:35.641Z,10.95
2019-03-03T10:50:04.076Z,10.74
2019-03-03T10:52:32.863Z,11.49
2019-03-03T10:55:00.320Z,11.27
2019-03-03T10:57:30.398Z,10.94
2019-03-03T10:59:57.717Z,10.78
2019-03-03T11:02:25.349Z,10.35
2019-03-03T11:04:53.125Z,10.28
2019-03-03T11:07:20.318Z,10.17
2019-03-03T11:09:47.553Z,10.14
2019-03-03T11:12:15.083Z,10.14
2019-03-03T11:14:42.259Z,10.02
2019-03-03T11:17:10.461Z,10.00
2019-03-03T11:19:37.687Z,10.03
2019-03-03T11:22:04.958Z,10.07
2019-03-03T11:24:34.622Z,10.35
2019-03-03T11:27:01.819Z,10.20
2019-03-03T11:29:29.974Z,10.28
2019-03-03T11:31:57.226Z,10.50
2019-03-03T11:34:25.427Z,10.58
2019-03-03T11:36:53.675Z,10.45
2019-03-03T11:39:21.005Z,10.43
2019-03-03T11:41:48.184Z,10.44
2019-03-03T11:44:15.460Z,10.84
2019-03-03T11:46:43.706Z,11.23
2019-03-03T11:49:11.245Z,12.52
2019-03-03T11:51:39.010Z,13.32
2019-03-03T11:54:06.310Z,12.87
2019-03-03T11:56:33.543Z,12.62
2019-03-03T11:59:00.715Z,12.99
2019-03-03T12:01:27.943Z,13.96
2019-03-03T12:03:57.524Z,14.29
2019-03-03T12:06:25.972Z,13.74
2019-03-03T12:08:54.230Z,13.98
2019-03-03T12:11:22.488Z,15.09
2019-03-03T12:13:49.760Z,16.05
2019-03-03T12:16:17.000Z,16.37
2019-03-03T12:18:44.263Z,16.22
2019-03-03T12:21:12.799Z,14.85
2019-03-03T12:23:40.254Z,15.99
2019-03-03T12:26:07.434Z,15.42
2019-03-03T12:28:35.072Z,16.05
2019-03-03T12:31:02.834Z,16.04
2019-03-03T12:33:30.193Z,16.10
2019-03-03T12:35:57.366Z,15.64
2019-03-03T12:38:25.559Z,14.73
2019-03-03T12:40:53.715Z,14.28
2019-03-03T12:43:20.990Z,13.84
2019-03-03T12:45:48.226Z,13.93
2019-03-03T12:48:15.498Z,13.72
2019-03-03T12:50:44.034Z,13.46
2019-03-03T12:53:11.795Z,12.96
2019-03-03T12:55:39.001Z,13.04
2019-03-03T12:58:07.533Z,12.89
2019-03-03T13:00:34.734Z,12.84
2019-03-03T13:03:02.382Z,13.47
2019-03-03T13:05:30.564Z,13.28
2019-03-03T13:07:58.822Z,13.54
2019-03-03T13:10:26.100Z,13.85
2019-03-03T13:12:53.810Z,13.68
2019-03-03T13:15:21.001Z,14.58
2019-03-03T13:17:49.168Z,15.00
2019-03-03T13:20:16.434Z,15.04
2019-03-03T13:22:44.690Z,15.03
2019-03-03T13:25:12.890Z,15.39
2019-03-03T13:27:41.147Z,15.88
2019-03-03T13:30:09.594Z,15.79
2019-03-03T13:32:36.775Z,15.35
2019-03-03T13:35:04.048Z,14.70
2019-03-03T13:37:32.486Z,13.87
2019-03-03T13:40:00.038Z,13.59
2019-03-03T13:42:27.218Z,13.21
2019-03-03T13:44:54.534Z,12.93
2019-03-03T13:47:21.724Z,12.81
2019-03-03T13:49:49.926Z,12.44
2019-03-03T13:52:18.079Z,12.00
2019-03-03T13:54:47.660Z,11.85
2019-03-03T13:57:14.825Z,11.73
2019-03-03T13:59:44.410Z,11.67
2019-03-03T14:02:11.591Z,11.74
2019-03-03T14:04:40.068Z,11.86
2019-03-03T14:07:12.514Z,11.67
2019-03-03T14:09:39.715Z,11.91
2019-03-03T14:12:08.156Z,11.84
2019-03-03T14:14:35.355Z,11.96
2019-03-03T14:17:03.213Z,12.38
2019-03-03T14:19:31.071Z,12.68
2019-03-03T14:21:58.337Z,12.32
2019-03-03T14:24:27.799Z,12.05
2019-03-03T14:26:55.005Z,12.14
2019-03-03T14:29:23.247Z,11.94
2019-03-03T14:31:51.804Z,11.72
2019-03-03T14:34:18.838Z,11.81
2019-03-03T14:36:47.075Z,11.64
2019-03-03T14:39:14.308Z,11.59
2019-03-03T14:41:42.759Z,11.52
2019-03-03T14:44:10.521Z,11.65
2019-03-03T14:46:37.725Z,11.86
2019-03-03T14:49:04.953Z,11.96
2019-03-03T14:51:32.225Z,11.97
2019-03-03T14:54:00.386Z,11.85
2019-03-03T14:56:27.659Z,11.96
2019-03-03T14:58:56.166Z,11.88
2019-03-03T15:01:23.390Z,12.02
2019-03-03T15:03:55.797Z,11.56
2019-03-03T15:06:24.707Z,11.42
2019-03-03T15:08:53.225Z,11.34
2019-03-03T15:11:21.777Z,11.33
2019-03-03T15:13:49.460Z,11.25
2019-03-03T15:16:18.024Z,11.00
2019-03-03T15:18:46.328Z,11.02
2019-03-03T15:21:13.592Z,10.93
2019-03-03T15:23:41.754Z,10.92
2019-03-03T15:26:10.239Z,10.96
2019-03-03T15:28:38.689Z,11.02
2019-03-03T15:31:05.881Z,11.04
2019-03-03T15:33:33.112Z,11.18
2019-03-03T15:36:00.294Z,11.15
2019-03-03T15:38:28.008Z,10.98
2019-03-03T15:40:55.448Z,11.05
2019-03-03T15:43:23.945Z,10.88
2019-03-03T15:45:51.134Z,10.91
2019-03-03T15:48:18.380Z,10.84
2019-03-03T15:50:46.570Z,10.90
2019-03-03T15:53:15.003Z,10.99
2019-03-03T15:55:42.191Z,10.93
2019-03-03T15:58:09.456Z,10.79
2019-03-03T16:00:36.686Z,10.58
2019-03-03T16:03:03.859Z,10.51
2019-03-03T16:05:31.086Z,10.66
2019-03-03T16:07:58.364Z,10.66
2019-03-03T16:10:26.795Z,10.60
2019-03-03T16:12:54.252Z,10.56
2019-03-03T16:15:22.020Z,10.42
2019-03-03T16:17:49.212Z,10.36
2019-03-03T16:20:17.368Z,10.23
2019-03-03T16:22:44.645Z,10.23
2019-03-03T16:25:13.180Z,10.22
2019-03-03T16:27:40.373Z,10.20
2019-03-03T16:30:09.847Z,10.10
2019-03-03T16:32:37.141Z,10.05
2019-03-03T16:35:04.388Z,9.89
2019-03-03T16:37:32.603Z,9.78
2019-03-03T16:40:02.454Z,9.76
2019-03-03T16:42:29.725Z,9.73
2019-03-03T16:44:57.894Z,9.68
2019-03-03T16:47:25.154Z,9.65
2019-03-03T16:49:53.313Z,9.60
2019-03-03T16:52:21.503Z,9.54
2019-03-03T16:54:48.732Z,9.48
2019-03-03T16:57:15.906Z,9.47
2019-03-03T16:59:44.065Z,9.49
2019-03-03T17:02:12.253Z,9.45
2019-03-03T17:04:40.408Z,9.43
2019-03-03T17:07:07.584Z,9.46
2019-03-03T17:09:35.837Z,9.43
2019-03-03T17:12:04.031Z,9.42
2019-03-03T17:14:31.265Z,9.36
2019-03-03T17:16:59.456Z,9.35
2019-03-03T17:19:26.688Z,9.40
2019-03-03T17:21:53.852Z,9.37
2019-03-03T17:24:22.032Z,9.32
2019-03-03T17:26:50.190Z,9.32
2019-03-03T17:29:17.465Z,9.33
2019-03-03T17:31:44.694Z,9.30
2019-03-03T17:34:13.244Z,9.30
2019-03-03T17:36:40.440Z,9.36
2019-03-03T17:39:07.703Z,9.38
2019-03-03T17:41:35.444Z,9.40
2019-03-03T17:44:02.616Z,9.36
2019-03-03T17:46:29.855Z,9.35
2019-03-03T17:48:58.401Z,9.36
2019-03-03T17:51:26.611Z,9.37
2019-03-03T17:53:54.801Z,9.32
2019-03-03T17:56:22.111Z,9.28
2019-03-03T17:58:51.458Z,9.32
2019-03-03T18:01:18.689Z,9.22
2019-03-03T18:03:47.002Z,9.16
2019-03-03T18:06:16.165Z,9.11
2019-03-03T18:08:44.366Z,9.15
2019-03-03T18:11:12.517Z,9.13
2019-03-03T19:29:30.750Z,23.77
2019-03-03T19:49:45.123Z,24.86
2019-03-03T19:52:12.888Z,20.25
2019-03-03T19:54:42.137Z,16.41
2019-03-03T19:57:10.055Z,14.03
2019-03-03T19:59:37.256Z,12.49
2019-03-03T20:02:06.714Z,11.44
2019-03-03T20:04:37.759Z,10.67
2019-03-03T20:12:37.240Z,9.25
2019-03-03T20:15:04.500Z,8.86
2019-03-03T20:17:33.875Z,8.49
2019-03-03T20:22:37.693Z,8.19
2019-03-03T20:25:10.669Z,8.07
2019-03-03T20:27:39.332Z,8.17
2019-03-03T20:32:47.162Z,8.08
2019-03-03T20:37:51.024Z,8.20
2019-03-03T20:40:21.848Z,8.28
2019-03-03T20:42:50.242Z,8.42
2019-03-03T20:45:20.891Z,8.55
2019-03-03T20:47:47.925Z,8.63
2019-03-03T20:50:16.104Z,8.69
2019-03-03T20:52:47.168Z,8.70
2019-03-03T20:57:47.085Z,8.73
2019-03-03T21:05:21.136Z,8.54
2019-03-03T21:07:51.737Z,8.54
2019-03-03T21:10:17.529Z,8.48
2019-03-03T21:12:44.910Z,8.44
2019-03-03T21:17:47.295Z,8.46
2019-03-03T21:20:14.343Z,8.50
2019-03-03T21:22:41.378Z,8.45
2019-03-03T21:25:08.426Z,8.39
2019-03-03T21:27:35.773Z,8.43
2019-03-03T21:30:02.818Z,8.42
2019-03-03T21:32:30.948Z,8.40
2019-03-03T21:34:57.984Z,8.33
2019-03-03T21:37:25.296Z,8.27
2019-03-03T21:39:52.333Z,8.30
2019-03-03T21:42:20.453Z,8.42
2019-03-03T21:44:47.490Z,8.42
2019-03-03T21:47:14.542Z,8.32
2019-03-03T21:49:41.578Z,8.23
2019-03-03T21:52:08.632Z,8.13
2019-03-03T21:54:35.961Z,8.01
2019-03-03T21:57:03.344Z,7.89
2019-03-03T21:59:30.695Z,7.90
2019-03-03T22:01:57.745Z,8.00
2019-03-03T22:04:25.080Z,7.97
2019-03-03T22:06:52.451Z,7.92
2019-03-03T22:09:19.488Z,8.00
2019-03-03T22:11:47.141Z,8.05
2019-03-03T22:14:14.505Z,8.05
2019-03-03T22:16:41.545Z,7.95
2019-03-03T22:19:08.902Z,8.05
2019-03-03T22:21:35.949Z,8.21
2019-03-03T22:24:02.982Z,8.30
2019-03-03T22:26:30.056Z,8.39
2019-03-03T22:28:57.067Z,8.44
2019-03-03T22:31:24.125Z,8.53
2019-03-03T22:33:51.160Z,8.70
2019-03-03T22:36:18.209Z,8.77
2019-03-03T22:38:45.588Z,8.79
2019-03-03T22:41:12.960Z,8.82
2019-03-03T22:43:40.316Z,8.83
2019-03-03T22:46:07.370Z,8.82
2019-03-03T22:48:34.414Z,8.84
2019-03-03T22:51:01.757Z,8.82
2019-03-03T22:53:29.108Z,8.82
2019-03-03T22:55:56.416Z,8.78
2019-03-03T22:58:23.456Z,8.80
2019-03-03T23:00:50.763Z,8.87
2019-03-03T23:03:19.702Z,8.80
2019-03-03T23:05:46.733Z,8.80
2019-03-03T23:08:14.076Z,8.83
2019-03-03T23:10:41.114Z,8.86
2019-03-03T23:13:08.167Z,8.86
2019-03-03T23:15:35.509Z,8.70
2019-03-03T23:18:02.559Z,8.47
2019-03-03T23:20:29.598Z,8.35
2019-03-03T23:22:56.647Z,8.35
2019-03-03T23:25:24.006Z,8.17
2019-03-03T23:27:51.062Z,7.94
2019-03-03T23:30:18.416Z,7.76
2019-03-03T23:35:23.173Z,7.82
2019-03-03T23:37:50.217Z,7.73
2019-03-03T23:40:17.250Z,7.61
2019-03-03T23:42:44.608Z,7.46
2019-03-03T23:45:12.710Z,7.47
2019-03-03T23:47:40.001Z,7.43
2019-03-03T23:50:07.032Z,7.51
2019-03-03T23:52:34.083Z,7.49
2019-03-03T23:55:01.114Z,7.56
2019-03-03T23:57:28.165Z,7.71
2019-03-03T23:59:55.202Z,7.87
